sensor_id;sensor_type;location;lat;lon;timestamp;pressure;altitude;pressure_sealevel;temperature;humidity
56568;BME280;42456;49.956;20.004;2023-01-29T00:01:36;99159.14;;;-0.76;83.82
56568;BME280;42456;49.956;20.004;2023-01-29T00:04:03;99161.30;;;-0.76;83.80
56568;BME280;42456;49.956;20.004;2023-01-29T00:06:31;99164.88;;;-0.77;83.80
56568;BME280;42456;49.956;20.004;2023-01-29T00:08:58;99165.30;;;-0.77;83.78
56568;BME280;42456;49.956;20.004;2023-01-29T00:11:25;99160.33;;;-0.77;83.90
56568;BME280;42456;49.956;20.004;2023-01-29T00:13:53;99158.43;;;-0.77;83.95
56568;BME280;42456;49.956;20.004;2023-01-29T00:16:19;99163.05;;;-0.78;83.78
56568;BME280;42456;49.956;20.004;2023-01-29T00:19:01;99171.06;;;-0.79;83.80
56568;BME280;42456;49.956;20.004;2023-01-29T00:21:28;99171.70;;;-0.81;83.76
56568;BME280;42456;49.956;20.004;2023-01-29T00:23:58;99170.48;;;-0.82;83.89
56568;BME280;42456;49.956;20.004;2023-01-29T00:26:26;99167.79;;;-0.82;83.95
56568;BME280;42456;49.956;20.004;2023-01-29T00:28:54;99169.36;;;-0.82;84.10
56568;BME280;42456;49.956;20.004;2023-01-29T00:31:23;99171.60;;;-0.81;84.08
56568;BME280;42456;49.956;20.004;2023-01-29T00:33:51;99173.02;;;-0.81;83.87
56568;BME280;42456;49.956;20.004;2023-01-29T00:36:19;99179.68;;;-0.81;84.16
56568;BME280;42456;49.956;20.004;2023-01-29T00:38:46;99178.13;;;-0.82;84.21
56568;BME280;42456;49.956;20.004;2023-01-29T00:41:20;99179.84;;;-0.81;84.19
56568;BME280;42456;49.956;20.004;2023-01-29T00:44:01;99175.89;;;-0.80;84.22
56568;BME280;42456;49.956;20.004;2023-01-29T00:46:42;99171.50;;;-0.81;84.29
56568;BME280;42456;49.956;20.004;2023-01-29T00:49:09;99169.08;;;-0.80;84.42
56568;BME280;42456;49.956;20.004;2023-01-29T00:51:37;99177.17;;;-0.80;84.26
56568;BME280;42456;49.956;20.004;2023-01-29T00:54:05;99186.15;;;-0.80;84.35
56568;BME280;42456;49.956;20.004;2023-01-29T00:56:36;99186.95;;;-0.79;84.39
56568;BME280;42456;49.956;20.004;2023-01-29T00:59:03;99185.84;;;-0.79;84.32
56568;BME280;42456;49.956;20.004;2023-01-29T01:01:30;99183.23;;;-0.78;84.38
56568;BME280;42456;49.956;20.004;2023-01-29T01:04:10;99178.94;;;-0.79;84.18
56568;BME280;42456;49.956;20.004;2023-01-29T01:06:38;99176.09;;;-0.78;84.14
56568;BME280;42456;49.956;20.004;2023-01-29T01:09:06;99177.80;;;-0.79;84.09
56568;BME280;42456;49.956;20.004;2023-01-29T01:11:47;99178.97;;;-0.80;84.13
56568;BME280;42456;49.956;20.004;2023-01-29T01:14:14;99182.77;;;-0.80;84.11
56568;BME280;42456;49.956;20.004;2023-01-29T01:16:41;99186.74;;;-0.79;84.22
56568;BME280;42456;49.956;20.004;2023-01-29T01:19:08;99185.48;;;-0.79;84.31
56568;BME280;42456;49.956;20.004;2023-01-29T01:21:35;99185.36;;;-0.79;84.15
56568;BME280;42456;49.956;20.004;2023-01-29T01:24:02;99186.66;;;-0.79;84.05
56568;BME280;42456;49.956;20.004;2023-01-29T01:26:31;99189.73;;;-0.78;83.81
56568;BME280;42456;49.956;20.004;2023-01-29T01:28:58;99186.10;;;-0.77;84.02
56568;BME280;42456;49.956;20.004;2023-01-29T01:31:25;99183.34;;;-0.78;84.07
56568;BME280;42456;49.956;20.004;2023-01-29T01:33:53;99184.92;;;-0.78;83.97
56568;BME280;42456;49.956;20.004;2023-01-29T01:36:21;99182.79;;;-0.79;83.84
56568;BME280;42456;49.956;20.004;2023-01-29T01:38:48;99191.89;;;-0.78;83.80
56568;BME280;42456;49.956;20.004;2023-01-29T01:41:17;99192.99;;;-0.79;83.79
56568;BME280;42456;49.956;20.004;2023-01-29T01:43:57;99193.77;;;-0.79;83.69
56568;BME280;42456;49.956;20.004;2023-01-29T01:46:25;99192.45;;;-0.80;83.71
56568;BME280;42456;49.956;20.004;2023-01-29T01:48:55;99194.44;;;-0.80;83.37
56568;BME280;42456;49.956;20.004;2023-01-29T01:51:25;99195.89;;;-0.81;83.39
56568;BME280;42456;49.956;20.004;2023-01-29T01:54:01;99196.58;;;-0.84;83.31
56568;BME280;42456;49.956;20.004;2023-01-29T01:56:33;99202.20;;;-0.85;83.02
56568;BME280;42456;49.956;20.004;2023-01-29T01:59:09;99197.44;;;-0.86;83.10
56568;BME280;42456;49.956;20.004;2023-01-29T02:01:39;99198.75;;;-0.86;83.10
56568;BME280;42456;49.956;20.004;2023-01-29T02:04:10;99197.54;;;-0.86;82.97
56568;BME280;42456;49.956;20.004;2023-01-29T02:06:53;99196.98;;;-0.87;82.98
56568;BME280;42456;49.956;20.004;2023-01-29T02:09:47;99189.73;;;-0.88;82.78
56568;BME280;42456;49.956;20.004;2023-01-29T02:12:17;99186.94;;;-0.88;82.79
56568;BME280;42456;49.956;20.004;2023-01-29T02:14:45;99183.02;;;-0.89;82.70
56568;BME280;42456;49.956;20.004;2023-01-29T02:17:14;99177.77;;;-0.89;82.63
56568;BME280;42456;49.956;20.004;2023-01-29T02:19:55;99170.30;;;-0.90;82.46
56568;BME280;42456;49.956;20.004;2023-01-29T02:30:43;99153.84;;;-0.95;82.05
56568;BME280;42456;49.956;20.004;2023-01-29T02:33:14;99151.68;;;-0.97;82.10
56568;BME280;42456;49.956;20.004;2023-01-29T02:39:31;99147.69;;;-0.99;82.15
56568;BME280;42456;49.956;20.004;2023-01-29T02:41:38;99150.05;;;-0.99;82.39
56568;BME280;42456;49.956;20.004;2023-01-29T02:44:38;99144.98;;;-0.99;82.35
56568;BME280;42456;49.956;20.004;2023-01-29T02:47:08;99144.80;;;-1.00;82.21
56568;BME280;42456;49.956;20.004;2023-01-29T02:49:59;99148.57;;;-1.02;82.06
56568;BME280;42456;49.956;20.004;2023-01-29T02:52:48;99147.66;;;-1.03;82.20
56568;BME280;42456;49.956;20.004;2023-01-29T02:55:28;99147.42;;;-1.04;82.13
56568;BME280;42456;49.956;20.004;2023-01-29T03:00:55;99148.60;;;-1.05;81.83
56568;BME280;42456;49.956;20.004;2023-01-29T03:03:31;99146.03;;;-1.07;81.91
56568;BME280;42456;49.956;20.004;2023-01-29T03:06:06;99145.08;;;-1.08;81.84
56568;BME280;42456;49.956;20.004;2023-01-29T03:08:45;99143.52;;;-1.09;81.85
56568;BME280;42456;49.956;20.004;2023-01-29T03:11:16;99146.82;;;-1.10;81.66
56568;BME280;42456;49.956;20.004;2023-01-29T03:13:56;99150.34;;;-1.11;81.77
56568;BME280;42456;49.956;20.004;2023-01-29T03:16:31;99150.48;;;-1.11;81.97
56568;BME280;42456;49.956;20.004;2023-01-29T03:19:12;99149.70;;;-1.11;81.75
56568;BME280;42456;49.956;20.004;2023-01-29T03:21:45;99159.88;;;-1.11;81.76
56568;BME280;42456;49.956;20.004;2023-01-29T03:24:21;99162.34;;;-1.12;81.77
56568;BME280;42456;49.956;20.004;2023-01-29T03:27:08;99167.61;;;-1.12;81.64
56568;BME280;42456;49.956;20.004;2023-01-29T03:29:50;99168.98;;;-1.13;81.71
56568;BME280;42456;49.956;20.004;2023-01-29T03:32:32;99167.05;;;-1.14;81.86
56568;BME280;42456;49.956;20.004;2023-01-29T03:35:04;99164.20;;;-1.14;81.77
56568;BME280;42456;49.956;20.004;2023-01-29T03:37:36;99166.42;;;-1.14;81.78
56568;BME280;42456;49.956;20.004;2023-01-29T03:40:06;99172.11;;;-1.14;81.81
56568;BME280;42456;49.956;20.004;2023-01-29T03:45:37;99171.31;;;-1.15;81.82
56568;BME280;42456;49.956;20.004;2023-01-29T03:50:51;99175.23;;;-1.16;81.75
56568;BME280;42456;49.956;20.004;2023-01-29T03:56:03;99169.60;;;-1.19;81.61
56568;BME280;42456;49.956;20.004;2023-01-29T03:58:38;99167.64;;;-1.18;81.85
56568;BME280;42456;49.956;20.004;2023-01-29T04:01:17;99167.46;;;-1.19;81.76
56568;BME280;42456;49.956;20.004;2023-01-29T04:03:50;99157.73;;;-1.20;81.78
56568;BME280;42456;49.956;20.004;2023-01-29T04:06:24;99152.18;;;-1.21;81.65
56568;BME280;42456;49.956;20.004;2023-01-29T04:11:23;99153.70;;;-1.24;81.46
56568;BME280;42456;49.956;20.004;2023-01-29T04:13:51;99156.14;;;-1.26;81.42
56568;BME280;42456;49.956;20.004;2023-01-29T04:16:27;99151.77;;;-1.27;81.46
56568;BME280;42456;49.956;20.004;2023-01-29T04:18:55;99150.41;;;-1.29;81.42
56568;BME280;42456;49.956;20.004;2023-01-29T04:21:23;99149.95;;;-1.29;81.25
56568;BME280;42456;49.956;20.004;2023-01-29T04:23:51;99145.86;;;-1.30;81.09
56568;BME280;42456;49.956;20.004;2023-01-29T04:29:13;99132.58;;;-1.32;80.97
56568;BME280;42456;49.956;20.004;2023-01-29T04:43:07;99141.02;;;-1.36;80.93
56568;BME280;42456;49.956;20.004;2023-01-29T04:51:14;99113.50;;;-1.40;80.79
56568;BME280;42456;49.956;20.004;2023-01-29T04:53:58;99106.79;;;-1.41;80.57
56568;BME280;42456;49.956;20.004;2023-01-29T04:59:02;99112.40;;;-1.42;80.41
56568;BME280;42456;49.956;20.004;2023-01-29T05:01:32;99104.45;;;-1.43;80.38
56568;BME280;42456;49.956;20.004;2023-01-29T05:04:03;99104.08;;;-1.44;80.41
56568;BME280;42456;49.956;20.004;2023-01-29T05:06:31;99095.92;;;-1.45;80.17
56568;BME280;42456;49.956;20.004;2023-01-29T05:08:59;99097.73;;;-1.45;80.30
56568;BME280;42456;49.956;20.004;2023-01-29T05:11:29;99094.70;;;-1.46;80.11
56568;BME280;42456;49.956;20.004;2023-01-29T05:13:58;99090.13;;;-1.47;80.03
56568;BME280;42456;49.956;20.004;2023-01-29T05:16:29;99093.31;;;-1.48;79.81
56568;BME280;42456;49.956;20.004;2023-01-29T05:19:11;99086.16;;;-1.50;79.66
56568;BME280;42456;49.956;20.004;2023-01-29T05:21:41;99081.97;;;-1.51;79.77
56568;BME280;42456;49.956;20.004;2023-01-29T05:24:14;99083.86;;;-1.52;79.53
56568;BME280;42456;49.956;20.004;2023-01-29T05:26:43;99087.53;;;-1.53;79.71
56568;BME280;42456;49.956;20.004;2023-01-29T05:29:24;99093.02;;;-1.56;79.63
56568;BME280;42456;49.956;20.004;2023-01-29T05:31:51;99096.86;;;-1.58;79.71
56568;BME280;42456;49.956;20.004;2023-01-29T05:34:18;99097.17;;;-1.60;80.02
56568;BME280;42456;49.956;20.004;2023-01-29T05:36:45;99103.33;;;-1.61;79.47
56568;BME280;42456;49.956;20.004;2023-01-29T05:39:11;99107.17;;;-1.63;79.67
56568;BME280;42456;49.956;20.004;2023-01-29T05:41:38;99107.59;;;-1.66;79.50
56568;BME280;42456;49.956;20.004;2023-01-29T05:44:05;99109.25;;;-1.68;79.83
56568;BME280;42456;49.956;20.004;2023-01-29T05:46:32;99113.08;;;-1.68;79.54
56568;BME280;42456;49.956;20.004;2023-01-29T05:48:59;99117.27;;;-1.69;79.61
56568;BME280;42456;49.956;20.004;2023-01-29T05:51:26;99124.84;;;-1.71;79.28
56568;BME280;42456;49.956;20.004;2023-01-29T05:53:53;99124.39;;;-1.72;79.44
56568;BME280;42456;49.956;20.004;2023-01-29T05:56:19;99127.66;;;-1.74;79.29
56568;BME280;42456;49.956;20.004;2023-01-29T05:58:46;99134.31;;;-1.76;79.16
56568;BME280;42456;49.956;20.004;2023-01-29T06:01:16;99138.80;;;-1.78;79.12
56568;BME280;42456;49.956;20.004;2023-01-29T06:03:44;99144.48;;;-1.81;78.94
56568;BME280;42456;49.956;20.004;2023-01-29T06:06:11;99145.54;;;-1.83;79.21
56568;BME280;42456;49.956;20.004;2023-01-29T06:08:39;99147.60;;;-1.85;78.91
56568;BME280;42456;49.956;20.004;2023-01-29T06:11:07;99145.16;;;-1.88;78.68
56568;BME280;42456;49.956;20.004;2023-01-29T06:13:34;99146.99;;;-1.91;78.60
56568;BME280;42456;49.956;20.004;2023-01-29T06:16:04;99146.52;;;-1.92;78.92
56568;BME280;42456;49.956;20.004;2023-01-29T06:18:32;99149.44;;;-1.94;78.35
56568;BME280;42456;49.956;20.004;2023-01-29T06:21:01;99149.71;;;-1.96;78.41
56568;BME280;42456;49.956;20.004;2023-01-29T06:23:28;99151.67;;;-1.97;78.61
56568;BME280;42456;49.956;20.004;2023-01-29T06:25:59;99158.91;;;-1.99;78.54
56568;BME280;42456;49.956;20.004;2023-01-29T06:28:27;99159.00;;;-2.00;78.40
56568;BME280;42456;49.956;20.004;2023-01-29T06:30:58;99161.59;;;-2.01;78.49
56568;BME280;42456;49.956;20.004;2023-01-29T06:33:37;99164.85;;;-2.02;78.31
56568;BME280;42456;49.956;20.004;2023-01-29T06:36:05;99167.63;;;-2.03;78.23
56568;BME280;42456;49.956;20.004;2023-01-29T06:38:32;99163.91;;;-2.05;78.32
56568;BME280;42456;49.956;20.004;2023-01-29T06:40:59;99166.41;;;-2.07;77.91
56568;BME280;42456;49.956;20.004;2023-01-29T06:43:26;99170.23;;;-2.07;77.79
56568;BME280;42456;49.956;20.004;2023-01-29T06:45:55;99171.37;;;-2.09;77.66
56568;BME280;42456;49.956;20.004;2023-01-29T06:48:23;99179.69;;;-2.10;77.99
56568;BME280;42456;49.956;20.004;2023-01-29T06:50:50;99180.95;;;-2.11;77.37
56568;BME280;42456;49.956;20.004;2023-01-29T06:53:20;99181.21;;;-2.13;77.31
56568;BME280;42456;49.956;20.004;2023-01-29T06:55:51;99179.96;;;-2.15;76.85
56568;BME280;42456;49.956;20.004;2023-01-29T06:58:19;99185.91;;;-2.17;76.82
56568;BME280;42456;49.956;20.004;2023-01-29T07:00:46;99192.38;;;-2.18;76.90
56568;BME280;42456;49.956;20.004;2023-01-29T07:03:13;99186.31;;;-2.20;76.92
56568;BME280;42456;49.956;20.004;2023-01-29T07:05:39;99185.98;;;-2.21;76.90
56568;BME280;42456;49.956;20.004;2023-01-29T07:08:06;99181.59;;;-2.21;76.23
56568;BME280;42456;49.956;20.004;2023-01-29T07:10:35;99178.84;;;-2.21;76.27
56568;BME280;42456;49.956;20.004;2023-01-29T07:13:02;99179.52;;;-2.21;76.49
56568;BME280;42456;49.956;20.004;2023-01-29T07:15:28;99181.02;;;-2.21;75.99
56568;BME280;42456;49.956;20.004;2023-01-29T07:18:02;99178.98;;;-2.20;76.02
56568;BME280;42456;49.956;20.004;2023-01-29T07:20:30;99184.19;;;-2.21;75.41
56568;BME280;42456;49.956;20.004;2023-01-29T07:22:57;99187.55;;;-2.21;75.54
56568;BME280;42456;49.956;20.004;2023-01-29T07:25:24;99191.92;;;-2.21;75.43
56568;BME280;42456;49.956;20.004;2023-01-29T07:27:51;99191.73;;;-2.22;75.51
56568;BME280;42456;49.956;20.004;2023-01-29T07:30:18;99191.35;;;-2.23;75.04
56568;BME280;42456;49.956;20.004;2023-01-29T07:32:45;99196.02;;;-2.24;75.14
56568;BME280;42456;49.956;20.004;2023-01-29T07:35:12;99187.64;;;-2.24;74.90
56568;BME280;42456;49.956;20.004;2023-01-29T07:37:39;99185.95;;;-2.24;74.98
56568;BME280;42456;49.956;20.004;2023-01-29T07:40:06;99185.34;;;-2.25;74.58
56568;BME280;42456;49.956;20.004;2023-01-29T07:42:37;99188.70;;;-2.25;74.43
56568;BME280;42456;49.956;20.004;2023-01-29T07:45:05;99195.02;;;-2.25;74.63
56568;BME280;42456;49.956;20.004;2023-01-29T07:47:33;99193.70;;;-2.26;74.14
56568;BME280;42456;49.956;20.004;2023-01-29T07:50:00;99196.05;;;-2.26;74.25
56568;BME280;42456;49.956;20.004;2023-01-29T07:52:29;99197.64;;;-2.26;74.47
56568;BME280;42456;49.956;20.004;2023-01-29T07:54:56;99201.10;;;-2.25;74.41
56568;BME280;42456;49.956;20.004;2023-01-29T07:57:24;99198.63;;;-2.25;74.20
56568;BME280;42456;49.956;20.004;2023-01-29T07:59:51;99203.02;;;-2.23;73.91
56568;BME280;42456;49.956;20.004;2023-01-29T08:02:17;99206.82;;;-2.22;74.20
56568;BME280;42456;49.956;20.004;2023-01-29T08:04:44;99216.22;;;-2.19;74.02
56568;BME280;42456;49.956;20.004;2023-01-29T08:07:11;99218.02;;;-2.17;74.05
56568;BME280;42456;49.956;20.004;2023-01-29T08:09:38;99222.58;;;-2.16;74.21
56568;BME280;42456;49.956;20.004;2023-01-29T08:12:05;99223.77;;;-2.14;74.14
56568;BME280;42456;49.956;20.004;2023-01-29T08:14:31;99225.88;;;-2.11;74.04
56568;BME280;42456;49.956;20.004;2023-01-29T08:16:58;99229.23;;;-2.05;74.16
56568;BME280;42456;49.956;20.004;2023-01-29T08:19:25;99226.95;;;-1.96;74.01
56568;BME280;42456;49.956;20.004;2023-01-29T08:21:52;99229.13;;;-1.83;74.07
56568;BME280;42456;49.956;20.004;2023-01-29T08:24:19;99231.86;;;-1.68;74.01
56568;BME280;42456;49.956;20.004;2023-01-29T08:26:45;99236.40;;;-1.55;74.30
56568;BME280;42456;49.956;20.004;2023-01-29T08:29:12;99242.88;;;-1.44;74.12
56568;BME280;42456;49.956;20.004;2023-01-29T08:31:39;99250.20;;;-1.34;73.80
56568;BME280;42456;49.956;20.004;2023-01-29T08:34:06;99253.82;;;-1.19;73.74
56568;BME280;42456;49.956;20.004;2023-01-29T08:36:33;99251.59;;;-1.01;73.80
56568;BME280;42456;49.956;20.004;2023-01-29T08:39:00;99260.24;;;-0.85;73.67
56568;BME280;42456;49.956;20.004;2023-01-29T08:41:27;99268.75;;;-0.75;73.54
56568;BME280;42456;49.956;20.004;2023-01-29T08:43:54;99269.64;;;-0.69;72.98
56568;BME280;42456;49.956;20.004;2023-01-29T08:46:22;99270.17;;;-0.63;72.85
56568;BME280;42456;49.956;20.004;2023-01-29T08:48:49;99266.73;;;-0.61;72.53
56568;BME280;42456;49.956;20.004;2023-01-29T08:51:16;99263.38;;;-0.60;72.19
56568;BME280;42456;49.956;20.004;2023-01-29T08:53:43;99258.33;;;-0.59;72.18
56568;BME280;42456;49.956;20.004;2023-01-29T08:56:10;99248.51;;;-0.58;71.94
56568;BME280;42456;49.956;20.004;2023-01-29T08:58:37;99245.13;;;-0.56;72.25
56568;BME280;42456;49.956;20.004;2023-01-29T09:01:09;99241.30;;;-0.49;72.06
56568;BME280;42456;49.956;20.004;2023-01-29T09:03:36;99248.97;;;-0.43;72.19
56568;BME280;42456;49.956;20.004;2023-01-29T09:06:08;99253.34;;;-0.37;72.24
56568;BME280;42456;49.956;20.004;2023-01-29T09:08:36;99252.84;;;-0.33;71.90
56568;BME280;42456;49.956;20.004;2023-01-29T09:11:03;99245.11;;;-0.31;71.93
56568;BME280;42456;49.956;20.004;2023-01-29T09:13:30;99238.45;;;-0.28;71.80
56568;BME280;42456;49.956;20.004;2023-01-29T09:15:58;99231.85;;;-0.27;71.68
56568;BME280;42456;49.956;20.004;2023-01-29T09:18:26;99230.41;;;-0.28;71.48
56568;BME280;42456;49.956;20.004;2023-01-29T09:20:53;99224.50;;;-0.27;71.58
56568;BME280;42456;49.956;20.004;2023-01-29T09:23:20;99224.84;;;-0.26;71.25
56568;BME280;42456;49.956;20.004;2023-01-29T09:25:47;99229.89;;;-0.25;71.49
56568;BME280;42456;49.956;20.004;2023-01-29T09:28:14;99238.19;;;-0.25;71.25
56568;BME280;42456;49.956;20.004;2023-01-29T09:30:43;99246.36;;;-0.18;71.47
56568;BME280;42456;49.956;20.004;2023-01-29T09:33:10;99238.64;;;-0.09;71.52
56568;BME280;42456;49.956;20.004;2023-01-29T09:35:41;99229.74;;;-0.07;71.08
56568;BME280;42456;49.956;20.004;2023-01-29T09:38:09;99226.15;;;-0.07;71.00
56568;BME280;42456;49.956;20.004;2023-01-29T09:43:42;99213.41;;;0.09;71.13
56568;BME280;42456;49.956;20.004;2023-01-29T09:46:20;99208.80;;;0.21;70.79
56568;BME280;42456;49.956;20.004;2023-01-29T09:48:57;99204.67;;;0.27;69.95
56568;BME280;42456;49.956;20.004;2023-01-29T09:51:32;99199.11;;;0.33;70.10
56568;BME280;42456;49.956;20.004;2023-01-29T09:56:41;99193.23;;;0.42;70.02
56568;BME280;42456;49.956;20.004;2023-01-29T09:59:11;99189.89;;;0.45;70.15
56568;BME280;42456;49.956;20.004;2023-01-29T10:02:04;99187.20;;;0.49;69.77
56568;BME280;42456;49.956;20.004;2023-01-29T10:07:34;99174.55;;;0.52;69.46
56568;BME280;42456;49.956;20.004;2023-01-29T10:12:52;99163.05;;;0.58;69.11
56568;BME280;42456;49.956;20.004;2023-01-29T10:15:46;99156.08;;;0.59;68.50
56568;BME280;42456;49.956;20.004;2023-01-29T10:26:40;99160.85;;;0.46;68.57
56568;BME280;42456;49.956;20.004;2023-01-29T10:29:09;99159.16;;;0.43;68.96
56568;BME280;42456;49.956;20.004;2023-01-29T10:31:39;99157.34;;;0.41;68.96
56568;BME280;42456;49.956;20.004;2023-01-29T10:34:17;99148.46;;;0.35;68.87
56568;BME280;42456;49.956;20.004;2023-01-29T10:36:48;99147.09;;;0.29;68.25
56568;BME280;42456;49.956;20.004;2023-01-29T10:39:20;99141.02;;;0.27;68.34
56568;BME280;42456;49.956;20.004;2023-01-29T10:55:50;99092.83;;;0.34;69.53
56568;BME280;42456;49.956;20.004;2023-01-29T11:01:01;99077.59;;;0.45;69.27
56568;BME280;42456;49.956;20.004;2023-01-29T11:03:30;99070.02;;;0.48;69.00
56568;BME280;42456;49.956;20.004;2023-01-29T11:06:14;99063.63;;;0.46;69.13
56568;BME280;42456;49.956;20.004;2023-01-29T11:08:57;99058.05;;;0.48;68.59
56568;BME280;42456;49.956;20.004;2023-01-29T11:11:47;99056.71;;;0.47;68.54
56568;BME280;42456;49.956;20.004;2023-01-29T11:14:21;99051.98;;;0.49;68.75
56568;BME280;42456;49.956;20.004;2023-01-29T11:16:50;99042.06;;;0.48;68.04
56568;BME280;42456;49.956;20.004;2023-01-29T11:19:17;99034.87;;;0.44;68.02
56568;BME280;42456;49.956;20.004;2023-01-29T11:22:01;99024.43;;;0.35;67.40
56568;BME280;42456;49.956;20.004;2023-01-29T11:24:29;99014.75;;;0.28;67.89
56568;BME280;42456;49.956;20.004;2023-01-29T11:26:58;99012.42;;;0.20;68.13
56568;BME280;42456;49.956;20.004;2023-01-29T11:29:43;99009.99;;;0.13;67.70
56568;BME280;42456;49.956;20.004;2023-01-29T11:32:24;99011.55;;;0.03;68.15
56568;BME280;42456;49.956;20.004;2023-01-29T11:37:36;99005.80;;;0.11;67.85
56568;BME280;42456;49.956;20.004;2023-01-29T11:40:30;98998.02;;;0.19;68.09
56568;BME280;42456;49.956;20.004;2023-01-29T11:43:11;98991.38;;;0.24;67.75
56568;BME280;42456;49.956;20.004;2023-01-29T11:45:39;98993.04;;;0.26;67.99
56568;BME280;42456;49.956;20.004;2023-01-29T11:48:13;98988.06;;;0.23;67.21
56568;BME280;42456;49.956;20.004;2023-01-29T11:50:42;98986.38;;;0.18;67.35
56568;BME280;42456;49.956;20.004;2023-01-29T11:53:23;98985.44;;;0.16;67.59
56568;BME280;42456;49.956;20.004;2023-01-29T11:55:52;98972.86;;;0.12;67.63
56568;BME280;42456;49.956;20.004;2023-01-29T11:58:26;98974.09;;;0.10;67.32
56568;BME280;42456;49.956;20.004;2023-01-29T12:00:56;98975.10;;;0.09;67.33
56568;BME280;42456;49.956;20.004;2023-01-29T12:03:40;98968.68;;;0.08;67.40
56568;BME280;42456;49.956;20.004;2023-01-29T12:06:22;98960.73;;;0.11;67.97
56568;BME280;42456;49.956;20.004;2023-01-29T12:09:00;98957.27;;;0.17;67.83
56568;BME280;42456;49.956;20.004;2023-01-29T12:11:30;98955.69;;;0.25;68.10
56568;BME280;42456;49.956;20.004;2023-01-29T12:14:07;98950.39;;;0.33;67.66
56568;BME280;42456;49.956;20.004;2023-01-29T12:16:55;98941.77;;;0.38;66.73
56568;BME280;42456;49.956;20.004;2023-01-29T12:21:58;98945.49;;;0.40;66.51
56568;BME280;42456;49.956;20.004;2023-01-29T12:27:22;98949.20;;;0.32;66.69
56568;BME280;42456;49.956;20.004;2023-01-29T12:30:25;98952.08;;;0.25;66.89
56568;BME280;42456;49.956;20.004;2023-01-29T12:32:59;98950.11;;;0.15;67.01
56568;BME280;42456;49.956;20.004;2023-01-29T12:38:21;98956.15;;;-0.00;67.38
56568;BME280;42456;49.956;20.004;2023-01-29T12:40:52;98956.67;;;-0.05;67.69
56568;BME280;42456;49.956;20.004;2023-01-29T12:43:29;98960.92;;;-0.07;67.77
56568;BME280;42456;49.956;20.004;2023-01-29T12:45:59;98962.02;;;-0.07;67.77
56568;BME280;42456;49.956;20.004;2023-01-29T12:48:31;98962.80;;;-0.04;67.97
56568;BME280;42456;49.956;20.004;2023-01-29T12:51:23;98961.72;;;-0.03;67.65
56568;BME280;42456;49.956;20.004;2023-01-29T12:53:58;98959.70;;;-0.04;67.54
56568;BME280;42456;49.956;20.004;2023-01-29T12:56:30;98955.70;;;-0.05;67.56
56568;BME280;42456;49.956;20.004;2023-01-29T12:59:03;98954.10;;;-0.07;67.40
56568;BME280;42456;49.956;20.004;2023-01-29T13:02:38;98961.91;;;-0.12;67.54
56568;BME280;42456;49.956;20.004;2023-01-29T13:05:15;98957.59;;;-0.18;67.32
56568;BME280;42456;49.956;20.004;2023-01-29T13:07:47;98958.64;;;-0.22;67.53
56568;BME280;42456;49.956;20.004;2023-01-29T13:10:21;98958.66;;;-0.24;67.58
56568;BME280;42456;49.956;20.004;2023-01-29T13:13:01;98956.45;;;-0.24;67.28
56568;BME280;42456;49.956;20.004;2023-01-29T13:15:37;98951.52;;;-0.24;67.24
56568;BME280;42456;49.956;20.004;2023-01-29T13:21:05;98944.05;;;-0.19;67.75
56568;BME280;42456;49.956;20.004;2023-01-29T13:23:39;98936.34;;;-0.15;67.51
56568;BME280;42456;49.956;20.004;2023-01-29T13:26:08;98937.35;;;-0.11;67.81
56568;BME280;42456;49.956;20.004;2023-01-29T13:28:36;98929.36;;;-0.06;67.45
56568;BME280;42456;49.956;20.004;2023-01-29T13:31:20;98927.55;;;-0.03;67.46
56568;BME280;42456;49.956;20.004;2023-01-29T13:33:58;98926.21;;;-0.01;67.69
56568;BME280;42456;49.956;20.004;2023-01-29T13:36:29;98922.85;;;0.01;67.14
56568;BME280;42456;49.956;20.004;2023-01-29T13:39:04;98922.68;;;0.01;67.23
56568;BME280;42456;49.956;20.004;2023-01-29T13:41:38;98926.28;;;-0.03;67.05
56568;BME280;42456;49.956;20.004;2023-01-29T13:44:16;98929.78;;;-0.11;67.10
56568;BME280;42456;49.956;20.004;2023-01-29T13:46:54;98932.10;;;-0.18;67.16
56568;BME280;42456;49.956;20.004;2023-01-29T13:49:36;98932.89;;;-0.26;66.97
56568;BME280;42456;49.956;20.004;2023-01-29T13:55:46;98934.24;;;-0.43;67.14
56568;BME280;42456;49.956;20.004;2023-01-29T13:57:58;98923.70;;;-0.51;67.25
56568;BME280;42456;49.956;20.004;2023-01-29T14:13:45;98932.55;;;-0.76;67.55
56568;BME280;42456;49.956;20.004;2023-01-29T14:18:56;98932.73;;;-0.80;67.60
56568;BME280;42456;49.956;20.004;2023-01-29T14:21:26;98931.06;;;-0.80;67.73
56568;BME280;42456;49.956;20.004;2023-01-29T14:24:14;98932.34;;;-0.79;67.53
56568;BME280;42456;49.956;20.004;2023-01-29T14:26:44;98937.32;;;-0.78;67.61
56568;BME280;42456;49.956;20.004;2023-01-29T14:34:35;98918.41;;;-0.79;67.42
56568;BME280;42456;49.956;20.004;2023-01-29T14:39:54;98904.13;;;-0.86;67.21
56568;BME280;42456;49.956;20.004;2023-01-29T14:42:33;98903.69;;;-0.90;67.25
56568;BME280;42456;49.956;20.004;2023-01-29T14:56:10;98913.25;;;-1.15;67.60
56568;BME280;42456;49.956;20.004;2023-01-29T14:58:43;98913.04;;;-1.20;67.77
56568;BME280;42456;49.956;20.004;2023-01-29T15:01:20;98911.67;;;-1.26;67.69
56568;BME280;42456;49.956;20.004;2023-01-29T15:03:54;98906.39;;;-1.33;67.92
56568;BME280;42456;49.956;20.004;2023-01-29T15:06:43;98905.11;;;-1.39;67.89
56568;BME280;42456;49.956;20.004;2023-01-29T15:09:15;98907.48;;;-1.48;68.14
56568;BME280;42456;49.956;20.004;2023-01-29T15:11:51;98904.62;;;-1.54;68.10
56568;BME280;42456;49.956;20.004;2023-01-29T15:14:28;98900.83;;;-1.59;68.39
56568;BME280;42456;49.956;20.004;2023-01-29T15:19:47;98896.25;;;-1.72;68.24
56568;BME280;42456;49.956;20.004;2023-01-29T15:22:16;98897.00;;;-1.77;68.60
56568;BME280;42456;49.956;20.004;2023-01-29T15:24:46;98889.36;;;-1.82;68.71
56568;BME280;42456;49.956;20.004;2023-01-29T15:27:17;98888.73;;;-1.87;68.52
56568;BME280;42456;49.956;20.004;2023-01-29T15:29:56;98887.19;;;-1.91;68.94
56568;BME280;42456;49.956;20.004;2023-01-29T15:32:38;98880.69;;;-1.95;68.85
56568;BME280;42456;49.956;20.004;2023-01-29T15:35:29;98876.70;;;-1.96;68.89
56568;BME280;42456;49.956;20.004;2023-01-29T15:40:38;98869.92;;;-2.00;69.24